Time;durP1;ratioP1;P1;durP2;ratioP2;P2;SDS_P1;SDS_P2;PMS_P1;PMS_P2;Temp;Humidity;BMP_temperature;BMP_pressure;BME280_temperature;BME280_humidity;BME280_pressure;Samples;Min_cycle;Max_cycle;Signal;HPM_P1;HPM_P2
2022/03/31 02:36:34;;;;;;;26.00;23.50;;;7.80;99.90;;;;;;5206526;23;20496;-73
2022/03/31 02:39:01;;;;;;;25.30;23.23;;;7.80;99.90;;;;;;5028750;28;20754;-74
2022/03/31 02:41:27;;;;;;;25.93;23.37;;;7.80;99.90;;;;;;5020083;28;20480;-73
2022/03/31 02:43:54;;;;;;;27.17;24.57;;;7.70;99.90;;;;;;5013575;28;20449;-74
2022/03/31 02:46:21;;;;;;;24.97;22.87;;;7.70;99.90;;;;;;5021164;28;20468;-74
2022/03/31 02:48:48;;;;;;;25.77;23.57;;;7.80;99.90;;;;;;5016451;28;20453;-74
2022/03/31 02:51:15;;;;;;;24.33;22.00;;;7.80;99.90;;;;;;5013460;28;20491;-73
2022/03/31 02:56:29;;;;;;;26.70;24.10;;;7.80;99.90;;;;;;5013401;28;20504;-74
2022/03/31 02:58:56;;;;;;;27.73;25.20;;;7.80;99.90;;;;;;5013438;28;20523;-74
2022/03/31 03:01:23;;;;;;;27.27;24.87;;;7.70;99.90;;;;;;5012834;28;20508;-75
2022/03/31 03:03:50;;;;;;;30.07;26.97;;;7.70;99.90;;;;;;5013202;28;20476;-75
2022/03/31 03:06:17;;;;;;;26.07;23.77;;;7.70;99.90;;;;;;5013221;28;20449;-74
2022/03/31 03:08:45;;;;;;;27.87;25.27;;;7.70;99.90;;;;;;5013385;28;20456;-74
2022/03/31 03:11:12;;;;;;;27.40;25.00;;;7.60;99.90;;;;;;5013152;28;20453;-74
2022/03/31 03:13:39;;;;;;;26.67;24.20;;;7.60;99.90;;;;;;5012666;28;20454;-74
2022/03/31 03:16:08;;;;;;;27.77;25.37;;;7.70;99.90;;;;;;5012810;28;20454;-74
2022/03/31 03:18:35;;;;;;;27.07;24.73;;;7.60;99.90;;;;;;5012685;28;20536;-74
2022/03/31 03:21:04;;;;;;;30.57;27.67;;;7.60;99.90;;;;;;5012992;28;20848;-75
2022/03/31 03:23:31;;;;;;;28.60;25.93;;;7.60;99.90;;;;;;5012744;28;20564;-74
2022/03/31 03:25:59;;;;;;;28.67;26.07;;;7.50;99.90;;;;;;5012852;28;20449;-74
2022/03/31 03:28:26;;;;;;;28.87;26.23;;;7.50;99.90;;;;;;5012726;28;20457;-74
2022/03/31 03:30:52;;;;;;;28.30;25.80;;;7.50;99.90;;;;;;5012607;28;20560;-73
2022/03/31 03:33:19;;;;;;;29.73;26.97;;;7.50;99.90;;;;;;5012519;28;20447;-72
2022/03/31 03:35:46;;;;;;;28.87;26.20;;;7.60;99.90;;;;;;5012587;28;20498;-73
2022/03/31 03:38:14;;;;;;;27.87;25.47;;;7.50;99.90;;;;;;5011320;28;20940;-72
2022/03/31 03:40:41;;;;;;;30.33;27.30;;;7.50;99.90;;;;;;5012358;28;20491;-72
2022/03/31 03:43:10;;;;;;;28.87;26.37;;;7.50;99.90;;;;;;5012221;28;20970;-73
2022/03/31 03:45:38;;;;;;;28.93;26.33;;;7.50;99.90;;;;;;5012191;28;20444;-73
2022/03/31 03:48:06;;;;;;;27.30;24.90;;;7.50;99.90;;;;;;5022744;28;20567;-73
2022/03/31 03:50:33;;;;;;;29.43;26.63;;;7.50;99.90;;;;;;5012394;28;20792;-73
2022/03/31 03:53:03;;;;;;;27.07;24.67;;;7.40;99.90;;;;;;5012348;28;20501;-72
2022/03/31 03:55:30;;;;;;;31.43;28.50;;;7.40;99.90;;;;;;5011959;28;20489;-72
2022/03/31 03:57:57;;;;;;;29.60;26.90;;;7.40;99.90;;;;;;5012028;28;20477;-72
2022/03/31 04:00:25;;;;;;;29.87;27.20;;;7.50;99.90;;;;;;5011928;28;20446;-72
2022/03/31 04:02:52;;;;;;;27.70;25.30;;;7.50;99.90;;;;;;5011592;28;20457;-73
2022/03/31 04:05:19;;;;;;;29.40;26.90;;;7.40;99.90;;;;;;5011877;28;20465;-73
2022/03/31 04:07:46;;;;;;;31.20;28.30;;;7.40;99.90;;;;;;5012778;28;20450;-73
2022/03/31 04:10:12;;;;;;;28.40;25.87;;;7.40;99.90;;;;;;5012331;28;20463;-73
2022/03/31 04:12:39;;;;;;;28.60;25.93;;;7.40;99.90;;;;;;5011616;28;20963;-72
2022/03/31 04:15:07;;;;;;;28.30;25.83;;;7.40;99.90;;;;;;5011548;28;20488;-73
2022/03/31 04:17:36;;;;;;;27.80;25.33;;;7.40;99.90;;;;;;5011729;28;20461;-73
2022/03/31 04:20:03;;;;;;;27.63;24.93;;;7.40;99.90;;;;;;5011910;28;20823;-73
2022/03/31 04:22:33;;;;;;;27.37;24.90;;;7.50;99.90;;;;;;5011877;28;20515;-74
2022/03/31 04:24:59;;;;;;;27.23;24.80;;;7.50;99.90;;;;;;5011491;28;20511;-73
2022/03/31 04:27:26;;;;;;;29.67;26.93;;;7.50;99.90;;;;;;5011740;28;20460;-72
2022/03/31 04:29:53;;;;;;;28.27;25.57;;;7.50;99.90;;;;;;5011443;28;20634;-73
2022/03/31 04:32:19;;;;;;;27.87;25.00;;;7.50;99.90;;;;;;5011580;28;20522;-73
2022/03/31 04:34:47;;;;;;;29.67;26.83;;;7.50;99.90;;;;;;5011676;28;20501;-73
2022/03/31 04:37:14;;;;;;;30.87;27.90;;;7.40;99.90;;;;;;5011680;28;20436;-73
2022/03/31 04:39:41;;;;;;;27.50;24.97;;;7.40;99.90;;;;;;5011117;28;20454;-73
2022/03/31 04:42:09;;;;;;;28.87;26.20;;;7.40;99.90;;;;;;5011225;28;20448;-73
2022/03/31 04:44:37;;;;;;;27.50;25.20;;;7.30;99.90;;;;;;5010919;28;20456;-73
2022/03/31 04:47:05;;;;;;;29.90;27.20;;;7.20;99.90;;;;;;5010543;28;20453;-72
2022/03/31 04:49:31;;;;;;;29.53;26.83;;;7.10;99.90;;;;;;5010979;28;20809;-72
2022/03/31 04:52:00;;;;;;;28.27;25.73;;;7.10;99.90;;;;;;5011326;28;20468;-73
2022/03/31 04:54:26;;;;;;;27.70;25.40;;;7.10;99.90;;;;;;5010893;28;21007;-73
2022/03/31 04:56:53;;;;;;;30.10;27.40;;;7.00;99.90;;;;;;5010859;28;20452;-72
2022/03/31 04:59:20;;;;;;;29.60;26.90;;;7.00;99.90;;;;;;5010943;28;20794;-73
2022/03/31 05:01:48;;;;;;;29.27;26.67;;;6.90;99.90;;;;;;5011168;28;20458;-73
2022/03/31 05:04:14;;;;;;;29.40;26.47;;;6.90;99.90;;;;;;5011051;28;20471;-72
2022/03/31 05:06:41;;;;;;;29.70;27.27;;;6.90;99.90;;;;;;5010874;28;20737;-72
2022/03/31 05:09:09;;;;;;;27.17;24.67;;;6.90;99.90;;;;;;5010605;28;20465;-72
2022/03/31 05:11:36;;;;;;;29.50;26.97;;;6.90;99.90;;;;;;5010749;28;20458;-71
2022/03/31 05:14:03;;;;;;;26.80;24.30;;;6.80;99.90;;;;;;5010937;28;20457;-72
2022/03/31 05:16:29;;;;;;;29.60;27.00;;;6.80;99.90;;;;;;5011056;28;20504;-72
2022/03/31 05:18:56;;;;;;;28.47;25.90;;;6.90;99.90;;;;;;5010425;28;20959;-72
2022/03/31 05:21:23;;;;;;;28.90;26.30;;;6.90;99.90;;;;;;5010418;28;21334;-74
2022/03/31 05:23:49;;;;;;;28.77;26.10;;;6.90;99.90;;;;;;5010494;28;20457;-74
2022/03/31 05:26:17;;;;;;;30.63;27.90;;;6.90;99.90;;;;;;5010716;28;20546;-73
2022/03/31 05:28:44;;;;;;;29.00;26.40;;;7.00;99.90;;;;;;5010630;28;20452;-73
2022/03/31 05:31:11;;;;;;;28.90;26.10;;;6.90;99.90;;;;;;5010324;28;20458;-73
2022/03/31 05:33:37;;;;;;;29.30;26.37;;;6.90;99.90;;;;;;5010311;28;20461;-73
2022/03/31 05:36:04;;;;;;;27.83;25.33;;;7.00;99.90;;;;;;5009491;28;20471;-72
2022/03/31 05:38:31;;;;;;;26.87;24.50;;;7.10;99.90;;;;;;5010745;28;20213;-73
2022/03/31 05:40:58;;;;;;;26.30;23.80;;;7.10;99.90;;;;;;5010566;28;20456;-71
2022/03/31 05:43:26;;;;;;;28.30;25.60;;;7.20;99.90;;;;;;5010692;28;20463;-71
2022/03/31 05:45:53;;;;;;;29.40;26.80;;;7.20;99.90;;;;;;5009993;28;20472;-72
2022/03/31 05:48:19;;;;;;;28.37;25.93;;;7.30;99.90;;;;;;5010191;28;20833;-71
2022/03/31 05:50:46;;;;;;;30.37;27.73;;;7.30;99.90;;;;;;5010345;28;20449;-72
2022/03/31 05:53:13;;;;;;;28.23;25.47;;;7.40;99.90;;;;;;5010209;28;20449;-71
2022/03/31 05:55:40;;;;;;;28.23;25.77;;;7.40;99.90;;;;;;5009906;28;20486;-71
2022/03/31 05:58:07;;;;;;;29.67;27.13;;;7.40;99.90;;;;;;5010016;28;20822;-72
2022/03/31 06:00:35;;;;;;;31.30;28.50;;;7.40;99.90;;;;;;5010203;28;20455;-71
2022/03/31 06:03:02;;;;;;;27.83;25.30;;;7.30;99.90;;;;;;5014096;28;20856;-69
2022/03/31 06:05:29;;;;;;;29.80;27.07;;;7.40;99.90;;;;;;5014284;28;20442;-72
2022/03/31 06:07:55;;;;;;;33.63;30.60;;;7.40;99.90;;;;;;5013850;28;20461;-72
2022/03/31 06:10:22;;;;;;;28.60;25.80;;;7.30;99.90;;;;;;5013925;28;20449;-71
2022/03/31 06:12:49;;;;;;;31.60;28.60;;;7.30;99.90;;;;;;5014022;28;20461;-72
2022/03/31 06:15:17;;;;;;;28.60;26.07;;;7.40;99.90;;;;;;5014097;28;20588;-71
2022/03/31 06:17:46;;;;;;;28.10;25.63;;;7.50;99.90;;;;;;5014093;28;20459;-70
2022/03/31 06:20:14;;;;;;;30.23;27.43;;;7.60;99.90;;;;;;5014530;28;20947;-71
2022/03/31 06:22:40;;;;;;;29.17;26.20;;;7.70;99.90;;;;;;5014433;28;20458;-70
2022/03/31 06:25:10;;;;;;;31.43;28.10;;;7.70;99.90;;;;;;5014267;28;20462;-70
2022/03/31 06:27:38;;;;;;;28.20;25.50;;;7.80;99.90;;;;;;5014376;28;20560;-70
2022/03/31 06:30:05;;;;;;;29.17;26.57;;;7.80;99.90;;;;;;5014214;28;20488;-71
2022/03/31 06:32:32;;;;;;;28.73;26.13;;;7.90;99.90;;;;;;5014180;28;20449;-71
2022/03/31 06:35:00;;;;;;;29.40;26.40;;;8.00;99.90;;;;;;5013864;28;20492;-71
2022/03/31 06:37:29;;;;;;;28.70;25.80;;;8.00;99.90;;;;;;5014313;28;20538;-71
2022/03/31 06:39:56;;;;;;;27.57;24.97;;;7.90;99.90;;;;;;5013983;28;20453;-71
2022/03/31 06:42:22;;;;;;;28.57;25.97;;;7.80;99.90;;;;;;5014087;28;20456;-71
2022/03/31 06:44:49;;;;;;;27.53;24.93;;;8.00;99.90;;;;;;5028699;28;20460;-70
2022/03/31 06:47:16;;;;;;;28.20;25.80;;;8.00;99.90;;;;;;5047842;28;20479;-70
2022/03/31 06:49:43;;;;;;;27.57;25.10;;;8.00;99.90;;;;;;5037291;28;20452;-70
2022/03/31 06:52:11;;;;;;;28.80;26.20;;;8.00;99.90;;;;;;5052262;28;20878;-71
2022/03/31 06:54:38;;;;;;;26.57;24.17;;;8.10;99.90;;;;;;5053676;28;20448;-70
2022/03/31 06:57:05;;;;;;;28.13;25.47;;;8.10;99.90;;;;;;5053671;28;20494;-70
2022/03/31 06:59:32;;;;;;;27.60;25.00;;;8.30;99.90;;;;;;5053732;28;20458;-70
2022/03/31 07:01:59;;;;;;;26.50;23.97;;;8.20;99.90;;;;;;5041493;28;20871;-70
2022/03/31 07:04:25;;;;;;;26.43;24.23;;;8.10;99.90;;;;;;5033049;28;20449;-70
2022/03/31 07:06:52;;;;;;;28.10;25.30;;;8.30;99.90;;;;;;5033329;28;20457;-70
2022/03/31 07:09:20;;;;;;;26.60;24.30;;;8.40;99.90;;;;;;5033322;28;20522;-70
2022/03/31 07:11:47;;;;;;;28.73;26.10;;;8.50;99.90;;;;;;5024436;28;20482;-70
2022/03/31 07:14:13;;;;;;;27.13;24.70;;;8.60;99.90;;;;;;5029530;28;20445;-71
2022/03/31 07:16:40;;;;;;;26.90;24.13;;;8.60;99.90;;;;;;5014956;28;20480;-71
2022/03/31 07:19:07;;;;;;;26.07;23.83;;;8.80;99.90;;;;;;5022477;28;20810;-71
2022/03/31 07:21:34;;;;;;;28.37;25.57;;;8.90;99.90;;;;;;5013910;28;20489;-70
2022/03/31 07:24:01;;;;;;;27.63;24.87;;;9.00;99.90;;;;;;5013623;28;20449;-71
2022/03/31 07:26:29;;;;;;;26.97;24.57;;;9.10;99.90;;;;;;5013622;28;20454;-71
2022/03/31 07:28:56;;;;;;;27.60;25.00;;;9.10;99.90;;;;;;5027161;28;20452;-71
2022/03/31 07:31:23;;;;;;;26.03;23.53;;;9.30;99.90;;;;;;5033290;28;20453;-71
2022/03/31 07:33:50;;;;;;;29.27;26.47;;;9.30;99.90;;;;;;5032904;28;20561;-71
2022/03/31 07:36:17;;;;;;;27.50;25.07;;;9.40;99.90;;;;;;5033061;28;20492;-73
2022/03/31 07:38:45;;;;;;;27.20;24.80;;;9.50;99.90;;;;;;5031329;28;20484;-71
2022/03/31 07:41:12;;;;;;;26.77;24.53;;;9.40;99.90;;;;;;5032341;28;20454;-72
2022/03/31 07:43:40;;;;;;;26.80;24.50;;;9.70;99.90;;;;;;5032059;28;20931;-71
2022/03/31 07:46:07;;;;;;;27.83;25.20;;;9.80;99.90;;;;;;5042617;28;20943;-71
2022/03/31 07:48:34;;;;;;;26.83;24.33;;;9.80;99.90;;;;;;5032104;28;20460;-71
2022/03/31 07:51:01;;;;;;;28.40;25.57;;;9.90;99.90;;;;;;5032530;28;20449;-71
2022/03/31 07:53:32;;;;;;;27.77;25.13;;;9.90;99.90;;;;;;5017930;28;20601;-71
2022/03/31 07:55:59;;;;;;;26.33;24.00;;;9.90;99.90;;;;;;5012393;28;20828;-71
2022/03/31 07:58:26;;;;;;;28.27;25.60;;;10.00;99.90;;;;;;5012093;28;20461;-70
2022/03/31 08:00:54;;;;;;;27.30;24.67;;;10.00;99.90;;;;;;5012033;28;20450;-71
2022/03/31 08:03:22;;;;;;;27.00;24.40;;;9.90;99.90;;;;;;5012075;28;20961;-71
2022/03/31 08:05:50;;;;;;;30.03;27.13;;;9.80;99.90;;;;;;5012310;28;20909;-71
2022/03/31 08:08:16;;;;;;;28.27;25.57;;;9.80;99.90;;;;;;5012263;28;20453;-71
2022/03/31 08:10:43;;;;;;;26.23;23.83;;;9.70;99.90;;;;;;5012106;28;20458;-71
2022/03/31 08:13:10;;;;;;;26.13;23.70;;;9.80;99.90;;;;;;5012201;28;20457;-71
2022/03/31 08:15:37;;;;;;;30.60;27.80;;;9.70;99.90;;;;;;5011848;28;20486;-71
2022/03/31 08:18:07;;;;;;;29.70;26.90;;;9.70;99.90;;;;;;5012071;28;20529;-71
2022/03/31 08:20:34;;;;;;;27.03;24.40;;;9.80;99.90;;;;;;5012073;28;20450;-76
2022/03/31 08:23:09;;;;;;;29.20;26.60;;;9.60;99.90;;;;;;5011332;28;20520;-75
2022/03/31 08:25:36;;;;;;;30.30;26.93;;;9.40;99.90;;;;;;5008876;28;20457;-75
2022/03/31 08:28:03;;;;;;;29.37;26.57;;;9.20;99.90;;;;;;5011563;28;20457;-76
2022/03/31 08:30:29;;;;;;;29.90;26.80;;;9.20;99.90;;;;;;5012160;28;20457;-75
2022/03/31 08:32:56;;;;;;;28.30;25.60;;;9.30;99.90;;;;;;5011511;28;20454;-75
2022/03/31 08:35:28;;;;;;;28.00;25.40;;;9.40;99.90;;;;;;5011027;28;20489;-76
2022/03/31 08:37:55;;;;;;;28.43;25.83;;;9.50;99.90;;;;;;5011447;28;20733;-75
2022/03/31 08:40:22;;;;;;;27.70;25.10;;;9.60;99.90;;;;;;5011629;28;20466;-75
2022/03/31 08:42:49;;;;;;;26.70;24.50;;;9.80;99.90;;;;;;5011480;28;20513;-75
2022/03/31 08:45:19;;;;;;;27.80;25.37;;;9.80;99.90;;;;;;5014397;28;20461;-75
2022/03/31 08:47:48;;;;;;;27.00;24.50;;;9.90;99.90;;;;;;5031646;28;20460;-75
2022/03/31 08:50:16;;;;;;;26.60;24.20;;;10.10;99.90;;;;;;5031815;28;21062;-75
2022/03/31 08:52:44;;;;;;;25.73;23.43;;;10.20;99.90;;;;;;5025092;28;20458;-75
2022/03/31 08:55:12;;;;;;;29.73;27.03;;;10.10;99.90;;;;;;5011953;28;20458;-76
2022/03/31 08:57:40;;;;;;;28.00;25.17;;;10.00;99.90;;;;;;5010934;28;20489;-75
2022/03/31 09:00:09;;;;;;;27.80;25.30;;;10.00;99.90;;;;;;5011521;28;20517;-75
2022/03/31 09:02:35;;;;;;;27.70;25.00;;;10.00;99.90;;;;;;5011174;28;20458;-75
2022/03/31 09:05:05;;;;;;;29.17;26.10;;;9.80;99.90;;;;;;5011637;28;20451;-75
2022/03/31 09:07:32;;;;;;;27.47;25.13;;;10.00;99.90;;;;;;5011473;28;20442;-75
2022/03/31 09:10:00;;;;;;;29.03;25.83;;;10.20;99.90;;;;;;5011354;28;20438;-76
2022/03/31 09:12:37;;;;;;;28.93;26.53;;;10.50;99.90;;;;;;5011311;28;20442;-75
2022/03/31 09:15:09;;;;;;;29.30;26.27;;;10.80;99.90;;;;;;5011061;28;20441;-76
2022/03/31 09:17:36;;;;;;;27.17;24.80;;;11.10;99.90;;;;;;5010991;28;20555;-74
2022/03/31 09:20:03;;;;;;;29.87;27.20;;;11.40;99.90;;;;;;5010584;28;20442;-74
2022/03/31 09:22:30;;;;;;;26.73;24.43;;;12.10;99.90;;;;;;5011137;28;20454;-74
2022/03/31 09:25:03;;;;;;;28.57;26.10;;;12.30;99.90;;;;;;5010811;28;20465;-75
2022/03/31 09:27:30;;;;;;;26.70;24.00;;;12.40;99.90;;;;;;5011339;28;20803;-75
2022/03/31 09:30:05;;;;;;;30.13;27.33;;;12.50;99.90;;;;;;5011181;28;20452;-75
2022/03/31 09:32:32;;;;;;;27.50;24.90;;;12.40;99.90;;;;;;5011029;28;20452;-76
2022/03/31 09:35:06;;;;;;;28.10;25.13;;;12.40;99.90;;;;;;5010735;28;20482;-75
2022/03/31 09:37:32;;;;;;;28.17;25.77;;;12.50;99.90;;;;;;5011048;28;20493;-76
2022/03/31 09:39:59;;;;;;;28.87;26.17;;;12.40;99.90;;;;;;5011255;28;20457;-75
2022/03/31 09:42:27;;;;;;;29.73;27.20;;;12.40;99.90;;;;;;5010919;28;20446;-75
2022/03/31 09:44:58;;;;;;;27.77;25.47;;;12.50;99.90;;;;;;5010928;28;20461;-75
2022/03/31 09:47:28;;;;;;;28.77;25.97;;;12.70;99.90;;;;;;5010947;28;20822;-75
2022/03/31 09:49:55;;;;;;;27.73;25.23;;;12.40;99.90;;;;;;5022789;28;20510;-75
2022/03/31 09:52:23;;;;;;;28.17;25.83;;;12.60;99.90;;;;;;5030447;28;20440;-75
2022/03/31 09:54:51;;;;;;;27.30;24.77;;;12.60;99.90;;;;;;5030557;28;20800;-74
2022/03/31 09:57:22;;;;;;;28.60;25.97;;;13.30;99.90;;;;;;5039547;28;20476;-74
2022/03/31 09:59:52;;;;;;;28.10;25.50;;;13.80;99.90;;;;;;5050505;28;20456;-72
2022/03/31 10:02:21;;;;;;;28.57;26.00;;;14.00;99.90;;;;;;5050582;28;20793;-71
2022/03/31 10:04:48;;;;;;;26.90;24.67;;;13.70;99.90;;;;;;5050603;28;20517;-72
2022/03/31 10:07:16;;;;;;;26.73;24.37;;;13.20;99.90;;;;;;5050160;28;20454;-71
2022/03/31 10:09:44;;;;;;;27.80;25.43;;;13.60;99.90;;;;;;5050003;28;20452;-71
2022/03/31 10:12:21;;;;;;;27.80;25.20;;;13.80;99.90;;;;;;5049619;28;20456;-71
2022/03/31 10:14:55;;;;;;;29.27;26.67;;;14.30;99.90;;;;;;5050488;28;20481;-71
2022/03/31 10:17:26;;;;;;;26.93;24.43;;;14.10;99.90;;;;;;5050355;28;20641;-71
2022/03/31 10:19:53;;;;;;;28.83;26.03;;;14.00;99.90;;;;;;5050192;28;20539;-71
2022/03/31 10:25:09;;;;;;;26.33;24.13;;;13.70;99.90;;;;;;5050386;28;20795;-72
2022/03/31 10:27:38;;;;;;;27.53;24.97;;;14.20;99.90;;;;;;5050181;28;20463;-72
2022/03/31 10:30:11;;;;;;;28.77;26.20;;;15.00;99.90;;;;;;5050169;28;20451;-70
2022/03/31 10:32:49;;;;;;;28.03;25.63;;;14.90;99.90;;;;;;5050330;28;20459;-70
2022/03/31 10:35:23;;;;;;;27.97;25.57;;;15.60;99.90;;;;;;5050106;28;21008;-71
2022/03/31 10:37:50;;;;;;;28.90;26.40;;;16.40;99.20;;;;;;5049809;28;20484;-70
2022/03/31 10:40:29;;;;;;;30.37;27.53;;;16.60;97.80;;;;;;5050233;28;20451;-70
2022/03/31 10:42:56;;;;;;;28.60;25.93;;;15.70;98.30;;;;;;5050482;28;20799;-71
2022/03/31 10:45:34;;;;;;;26.20;24.00;;;15.20;99.90;;;;;;5050040;28;20460;-71
2022/03/31 10:48:01;;;;;;;28.07;25.57;;;15.20;99.90;;;;;;5052226;28;20456;-70
2022/03/31 10:50:31;;;;;;;31.13;28.60;;;14.80;99.90;;;;;;5053802;28;21072;-71
2022/03/31 10:53:00;;;;;;;27.93;25.47;;;14.90;99.90;;;;;;5053936;28;20884;-71
2022/03/31 10:55:35;;;;;;;30.57;27.87;;;14.80;99.90;;;;;;5053955;28;20443;-70
2022/03/31 10:58:02;;;;;;;27.23;24.87;;;14.50;99.90;;;;;;5038465;28;20491;-71
2022/03/31 11:00:30;;;;;;;28.13;25.67;;;14.90;99.90;;;;;;5033718;28;20448;-71
2022/03/31 11:02:57;;;;;;;26.47;24.23;;;15.20;99.90;;;;;;5033507;28;20460;-70
2022/03/31 11:05:25;;;;;;;29.40;26.60;;;14.70;99.90;;;;;;5033489;28;20452;-71
2022/03/31 11:08:02;;;;;;;28.10;25.60;;;14.60;99.90;;;;;;5033629;28;20453;-71
2022/03/31 11:10:29;;;;;;;29.73;27.23;;;14.80;99.90;;;;;;5033994;28;20487;-71
2022/03/31 11:12:57;;;;;;;27.93;25.70;;;15.50;99.90;;;;;;5033512;28;20453;-71
2022/03/31 11:15:25;;;;;;;27.40;25.20;;;16.00;99.90;;;;;;5033529;28;20461;-71
2022/03/31 11:17:59;;;;;;;28.27;25.93;;;16.20;99.30;;;;;;5033080;28;20491;-71
2022/03/31 11:20:26;;;;;;;29.03;26.53;;;16.30;98.50;;;;;;5033322;28;20507;-71
2022/03/31 11:22:54;;;;;;;28.57;25.83;;;15.80;99.00;;;;;;5033208;28;20471;-71
2022/03/31 11:25:23;;;;;;;29.03;26.43;;;15.20;99.90;;;;;;5033259;28;20472;-73
2022/03/31 11:27:52;;;;;;;28.70;25.87;;;14.70;99.90;;;;;;5033156;28;20445;-78
2022/03/31 11:30:22;;;;;;;28.80;26.10;;;14.70;99.90;;;;;;5033047;28;20453;-75
2022/03/31 11:33:04;;;;;;;26.87;24.57;;;14.60;99.90;;;;;;5032468;28;20502;-75
2022/03/31 11:35:32;;;;;;;28.10;25.70;;;14.60;99.90;;;;;;5029089;28;20488;-75
2022/03/31 11:38:00;;;;;;;27.83;25.37;;;15.00;99.90;;;;;;5032601;28;20495;-75
2022/03/31 11:40:31;;;;;;;28.60;25.67;;;14.50;99.90;;;;;;5032304;28;20453;-75
2022/03/31 11:43:01;;;;;;;26.23;23.73;;;14.80;99.90;;;;;;5032105;28;20490;-75
2022/03/31 11:45:34;;;;;;;27.53;24.77;;;15.00;99.90;;;;;;5032365;28;20460;-75
2022/03/31 11:48:05;;;;;;;28.83;26.30;;;15.00;99.90;;;;;;5032316;28;20481;-76
2022/03/31 11:50:33;;;;;;;27.73;25.13;;;14.80;99.90;;;;;;5032356;28;20448;-75
2022/03/31 11:53:01;;;;;;;28.00;25.57;;;14.90;99.90;;;;;;5032227;28;20453;-75
2022/03/31 11:55:28;;;;;;;29.33;26.53;;;14.80;99.90;;;;;;5032226;28;20485;-75
2022/03/31 11:57:57;;;;;;;28.70;26.07;;;14.80;99.90;;;;;;5046063;28;20490;-75
2022/03/31 12:00:26;;;;;;;28.20;25.43;;;14.70;99.90;;;;;;5051144;28;20722;-75
2022/03/31 12:03:12;;;;;;;28.77;26.30;;;14.70;99.90;;;;;;5051448;28;20452;-75
2022/03/31 12:05:38;;;;;;;28.40;25.70;;;14.80;99.90;;;;;;5051793;28;20934;-75
2022/03/31 12:08:07;;;;;;;29.30;26.50;;;14.80;99.90;;;;;;5051777;28;20803;-75
2022/03/31 12:10:34;;;;;;;27.73;25.20;;;14.40;99.90;;;;;;5051402;28;20467;-75
2022/03/31 12:13:01;;;;;;;31.03;27.80;;;14.30;99.90;;;;;;5051925;28;20448;-75
2022/03/31 12:15:31;;;;;;;29.37;26.70;;;14.20;99.90;;;;;;5051645;28;20517;-74
2022/03/31 12:17:59;;;;;;;30.13;27.20;;;13.50;99.90;;;;;;5051465;28;20538;-75
2022/03/31 12:20:28;;;;;;;30.37;27.67;;;14.00;99.90;;;;;;5051456;28;20456;-75
2022/03/31 12:22:55;;;;;;;29.77;27.13;;;13.90;99.90;;;;;;5051164;28;20906;-74
2022/03/31 12:25:33;;;;;;;30.00;27.30;;;13.80;99.90;;;;;;5051228;28;20955;-74
2022/03/31 12:28:03;;;;;;;27.50;25.20;;;13.80;99.90;;;;;;5051559;28;20455;-75
2022/03/31 12:30:39;;;;;;;26.00;23.50;;;14.10;99.90;;;;;;5051820;28;20443;-75
2022/03/31 12:33:17;;;;;;;26.43;23.73;;;14.10;99.90;;;;;;5050969;28;20447;-74
2022/03/31 12:35:51;;;;;;;29.43;26.83;;;13.80;99.90;;;;;;5050692;28;20488;-74
2022/03/31 12:38:18;;;;;;;27.37;24.80;;;13.80;99.90;;;;;;5050983;28;21015;-74
2022/03/31 12:40:45;;;;;;;27.90;25.17;;;13.80;99.90;;;;;;5051264;28;20924;-75
2022/03/31 12:43:11;;;;;;;26.87;24.27;;;13.90;99.90;;;;;;5051622;28;20452;-74
2022/03/31 12:45:38;;;;;;;27.10;24.60;;;14.20;99.90;;;;;;5050891;28;20456;-74
2022/03/31 12:48:09;;;;;;;27.60;24.70;;;14.20;99.90;;;;;;5051077;28;20518;-74
2022/03/31 12:50:38;;;;;;;29.20;26.33;;;14.20;99.90;;;;;;5050777;28;20938;-74
2022/03/31 12:53:07;;;;;;;27.27;24.53;;;14.30;99.90;;;;;;5050900;28;20474;-74
2022/03/31 12:55:35;;;;;;;25.73;23.13;;;14.40;99.90;;;;;;5050789;28;20456;-74
2022/03/31 12:58:05;;;;;;;27.10;24.37;;;14.30;99.90;;;;;;5035311;28;20477;-74
2022/03/31 13:00:33;;;;;;;27.50;24.73;;;14.20;99.90;;;;;;5030933;28;20459;-74
2022/03/31 13:03:00;;;;;;;27.87;25.07;;;13.90;99.90;;;;;;5030640;28;20457;-74
2022/03/31 13:05:29;;;;;;;26.37;23.77;;;14.00;99.90;;;;;;5030584;28;20947;-74
2022/03/31 13:07:57;;;;;;;28.60;25.80;;;14.00;99.90;;;;;;5030602;28;20544;-74
2022/03/31 13:10:26;;;;;;;25.73;23.33;;;13.70;99.90;;;;;;5030379;28;20453;-73
2022/03/31 13:12:54;;;;;;;25.93;23.70;;;13.70;99.90;;;;;;5030634;28;20455;-74
2022/03/31 13:15:22;;;;;;;28.40;25.50;;;13.70;99.90;;;;;;5030893;28;20479;-74
2022/03/31 13:17:49;;;;;;;26.73;24.43;;;13.50;99.90;;;;;;5030386;28;20528;-74
2022/03/31 13:20:18;;;;;;;25.60;23.40;;;13.40;99.90;;;;;;5030364;28;20445;-74
2022/03/31 13:22:45;;;;;;;26.43;23.90;;;13.30;99.90;;;;;;5030619;28;20551;-74
2022/03/31 13:25:12;;;;;;;28.23;25.70;;;13.10;99.90;;;;;;5030569;28;20459;-74
2022/03/31 13:27:40;;;;;;;29.03;26.33;;;13.10;99.90;;;;;;5030375;28;20452;-74
2022/03/31 13:30:08;;;;;;;25.40;23.07;;;12.90;99.90;;;;;;5030361;28;20445;-74
2022/03/31 13:32:36;;;;;;;28.20;25.60;;;12.80;99.90;;;;;;5030013;28;20485;-74
2022/03/31 13:35:03;;;;;;;29.57;26.83;;;12.70;99.90;;;;;;5030313;28;20481;-74
2022/03/31 13:37:29;;;;;;;28.47;25.87;;;12.80;99.90;;;;;;5030574;28;20489;-74
2022/03/31 13:39:58;;;;;;;29.30;26.53;;;12.80;99.90;;;;;;5030513;28;20441;-74
2022/03/31 13:42:24;;;;;;;27.90;25.17;;;12.90;99.90;;;;;;5030178;28;20457;-74
2022/03/31 13:44:53;;;;;;;29.67;26.33;;;12.80;99.90;;;;;;5029790;28;20938;-75
2022/03/31 13:47:20;;;;;;;26.77;24.40;;;12.60;99.90;;;;;;5030223;28;20548;-74
2022/03/31 13:49:46;;;;;;;26.70;24.10;;;12.70;99.90;;;;;;5030463;28;20456;-73
2022/03/31 13:52:13;;;;;;;26.57;23.97;;;12.70;99.90;;;;;;5030201;28;20453;-74
2022/03/31 13:54:40;;;;;;;26.60;24.00;;;12.90;99.90;;;;;;5030489;28;20462;-74
2022/03/31 14:01:07;;;;;;;29.90;27.10;;;12.90;99.90;;;;;;5037792;28;21336;-75
2022/03/31 14:02:40;;;;;;;34.27;31.47;;;12.60;99.90;;;;;;5051456;28;20439;-81
2022/03/31 14:05:08;;;;;;;36.13;32.80;;;12.10;99.90;;;;;;5052034;28;20483;-81
2022/03/31 14:07:35;;;;;;;34.60;31.70;;;11.90;99.90;;;;;;5051963;28;20872;-82
2022/03/31 14:10:04;;;;;;;37.90;34.67;;;11.80;99.90;;;;;;5051906;28;20503;-83
2022/03/31 14:12:30;;;;;;;37.07;33.77;;;11.60;99.90;;;;;;5050908;28;20459;-84
2022/03/31 14:14:59;;;;;;;37.30;34.03;;;11.30;99.90;;;;;;5050698;28;20456;-82
2022/03/31 14:17:25;;;;;;;40.77;37.33;;;11.20;99.90;;;;;;5049595;28;20509;-80
2022/03/31 14:19:52;;;;;;;38.90;35.67;;;11.20;99.90;;;;;;5049613;28;20452;-82
2022/03/31 14:22:19;;;;;;;46.83;42.60;;;10.90;99.90;;;;;;5051710;28;20450;-84
2022/03/31 14:24:45;;;;;;;46.90;43.00;;;10.90;99.90;;;;;;5055081;28;20462;-87
2022/03/31 14:27:12;;;;;;;47.67;43.73;;;10.80;99.90;;;;;;5054277;28;20786;-80
2022/03/31 14:29:42;;;;;;;48.47;44.60;;;10.70;99.90;;;;;;5053787;28;20454;-80
2022/03/31 14:32:11;;;;;;;50.60;46.47;;;10.50;99.90;;;;;;5053455;28;20456;-78
2022/03/31 14:34:38;;;;;;;51.07;46.60;;;10.40;99.90;;;;;;5053277;28;20464;-78
2022/03/31 14:37:06;;;;;;;56.57;51.40;;;10.40;99.90;;;;;;5053573;28;20489;-78
2022/03/31 14:39:32;;;;;;;56.20;51.07;;;10.40;99.90;;;;;;5053728;28;20440;-78
2022/03/31 14:41:59;;;;;;;55.20;50.70;;;10.30;99.90;;;;;;5053319;28;20440;-78
2022/03/31 14:44:26;;;;;;;52.10;47.73;;;10.30;99.90;;;;;;5053131;28;20844;-78
2022/03/31 14:46:53;;;;;;;52.73;48.33;;;10.40;99.90;;;;;;5053449;28;20487;-77
2022/03/31 14:49:23;;;;;;;56.67;51.67;;;10.30;99.90;;;;;;5053275;28;20821;-77
2022/03/31 14:51:50;;;;;;;56.40;51.10;;;10.30;99.90;;;;;;5053162;28;20467;-77
2022/03/31 14:54:18;;;;;;;56.80;51.00;;;10.40;99.90;;;;;;5053277;28;20440;-77
2022/03/31 14:56:46;;;;;;;58.10;52.60;;;10.40;99.90;;;;;;5048164;28;20441;-77
2022/03/31 14:59:13;;;;;;;56.63;51.17;;;10.50;99.90;;;;;;5033597;28;20499;-78
2022/03/31 15:01:40;;;;;;;57.00;51.90;;;10.40;99.90;;;;;;5030253;28;20456;-77
2022/03/31 15:04:08;;;;;;;56.17;51.13;;;10.40;99.90;;;;;;5033334;28;20453;-78
2022/03/31 15:06:36;;;;;;;55.60;50.80;;;10.40;99.90;;;;;;5033669;28;20457;-79
2022/03/31 15:09:03;;;;;;;56.33;51.40;;;10.50;99.90;;;;;;5033863;28;20804;-79
2022/03/31 15:14:32;;;;;;;56.10;51.03;;;10.30;99.90;;;;;;5033541;28;20464;-79
2022/03/31 15:17:00;;;;;;;59.30;53.53;;;10.40;99.90;;;;;;5033372;28;20449;-80
2022/03/31 15:19:27;;;;;;;59.30;53.73;;;10.40;99.90;;;;;;5033331;28;20550;-79
2022/03/31 15:21:55;;;;;;;59.47;54.17;;;10.40;99.90;;;;;;5033510;28;20457;-79